Time;durP1;ratioP1;P1;durP2;ratioP2;P2;SDS_P1;SDS_P2;PMS_P1;PMS_P2;Temp;Humidity;BMP_temperature;BMP_pressure;BME280_temperature;BME280_humidity;BME280_pressure;Samples;Min_cycle;Max_cycle;Signal;HPM_P1;HPM_P2
2023/05/02 00:00:27;;;;;;;10.90;4.13;;;;;;;13.66;100.00;101747.25;2073142;28;20177;-62
2023/05/02 00:01:27;;;;;;;10.43;4.20;;;;;;;13.63;100.00;101742.56;2073037;28;20206;-61
2023/05/02 00:02:27;;;;;;;8.30;4.00;;;;;;;13.62;100.00;101744.53;2073139;28;20475;-62
2023/05/02 00:03:28;;;;;;;7.20;4.00;;;;;;;13.31;100.00;101693.00;2073108;28;20168;-62
2023/05/02 00:04:28;;;;;;;6.20;4.10;;;;;;;13.52;100.00;101736.41;2073091;28;20272;-63
2023/05/02 00:05:29;;;;;;;9.63;4.70;;;;;;;13.65;100.00;101754.84;2073184;28;20188;-63
2023/05/02 00:06:30;;;;;;;12.40;5.30;;;;;;;13.58;100.00;101745.84;2073159;28;20174;-62
2023/05/02 00:07:31;;;;;;;14.10;5.10;;;;;;;13.60;100.00;101760.91;2073044;28;20431;-61
2023/05/02 00:08:31;;;;;;;11.27;4.93;;;;;;;13.58;100.00;101748.63;2073069;28;20175;-62
2023/05/02 00:09:32;;;;;;;9.63;4.93;;;;;;;13.60;100.00;101748.97;2072446;28;20202;-62
2023/05/02 00:10:33;;;;;;;11.33;4.57;;;;;;;13.38;100.00;101714.38;2072118;28;20689;-62
2023/05/02 00:11:33;;;;;;;8.73;4.40;;;;;;;13.65;100.00;101751.25;2064959;28;20184;-62
2023/05/02 00:12:34;;;;;;;6.10;4.00;;;;;;;13.65;100.00;101745.69;2065065;28;20629;-62
2023/05/02 00:13:34;;;;;;;8.70;4.50;;;;;;;13.62;100.00;101746.56;2065046;28;20614;-62
2023/05/02 00:14:35;;;;;;;8.70;4.43;;;;;;;13.64;100.00;101741.34;2064937;28;20173;-62
2023/05/02 00:15:35;;;;;;;5.70;4.10;;;;;;;13.17;100.00;101670.22;2064925;28;20174;-61
2023/05/02 00:16:35;;;;;;;5.63;4.00;;;;;;;13.65;100.00;101745.69;2064332;28;20672;-63
2023/05/02 00:17:39;;;;;;;6.97;4.20;;;;;;;12.67;100.00;101586.00;2066088;28;20616;-62
2023/05/02 00:18:39;;;;;;;6.47;3.60;;;;;;;13.65;100.00;101746.50;2073012;28;20640;-62
2023/05/02 00:19:40;;;;;;;8.87;4.20;;;;;;;13.65;100.00;101749.28;2073000;28;20864;-61
2023/05/02 00:20:40;;;;;;;7.27;4.30;;;;;;;13.65;100.00;101749.28;2073055;28;20228;-62
2023/05/02 00:21:41;;;;;;;6.77;4.33;;;;;;;13.73;100.00;101749.94;2066149;28;20646;-62
2023/05/02 00:22:41;;;;;;;5.87;3.90;;;;;;;13.69;100.00;101752.00;2065029;28;20179;-62
2023/05/02 00:23:42;;;;;;;6.97;4.10;;;;;;;13.67;100.00;101754.41;2065019;28;20258;-62
2023/05/02 00:24:42;;;;;;;7.17;3.93;;;;;;;13.69;100.00;101755.53;2064987;28;20575;-61
2023/05/02 00:25:44;;;;;;;5.97;4.00;;;;;;;13.66;100.00;101739.69;2065010;28;20183;-62
2023/05/02 00:26:45;;;;;;;7.33;4.33;;;;;;;13.73;100.00;101747.91;2064906;28;20266;-61
2023/05/02 00:27:45;;;;;;;6.40;4.17;;;;;;;12.96;100.00;101621.28;2064963;28;20427;-62
2023/05/02 00:28:46;;;;;;;9.23;4.10;;;;;;;13.23;100.00;101683.19;2065054;28;20196;-61
2023/05/02 00:29:46;;;;;;;6.23;4.17;;;;;;;13.73;100.00;101758.28;2064206;28;20713;-63
2023/05/02 00:30:47;;;;;;;6.77;3.90;;;;;;;13.74;100.00;101749.47;2064053;28;20739;-61
2023/05/02 00:31:47;;;;;;;7.63;4.00;;;;;;;13.67;100.00;101752.41;2072521;28;20270;-62
2023/05/02 00:32:48;;;;;;;5.93;3.77;;;;;;;13.68;100.00;101758.78;2064916;28;20186;-62
2023/05/02 00:33:48;;;;;;;6.60;3.80;;;;;;;13.72;100.00;101757.50;2064289;28;20188;-62
2023/05/02 00:34:48;;;;;;;6.07;3.93;;;;;;;13.73;100.00;101769.44;2065814;28;20601;-62
2023/05/02 00:35:50;;;;;;;6.83;3.67;;;;;;;13.72;100.00;101771.41;2073083;28;20639;-62
2023/05/02 00:36:50;;;;;;;6.57;3.90;;;;;;;13.72;100.00;101765.84;2073651;28;20621;-62
2023/05/02 00:37:51;;;;;;;6.50;3.43;;;;;;;13.71;100.00;101764.28;2074424;28;20526;-62
2023/05/02 00:38:51;;;;;;;4.83;3.70;;;;;;;13.68;100.00;101759.56;2074340;28;20636;-62
2023/05/02 00:39:51;;;;;;;4.73;3.50;;;;;;;13.67;100.00;101769.13;2069284;28;20214;-62
2023/05/02 00:40:52;;;;;;;4.57;3.40;;;;;;;13.65;100.00;101765.19;2066332;28;20568;-62
2023/05/02 00:41:59;;;;;;;5.83;3.70;;;;;;;13.62;100.00;101771.63;2066296;28;20607;-62
2023/05/02 00:42:59;;;;;;;7.20;4.37;;;;;;;13.61;100.00;101765.25;2066283;28;20185;-61
2023/05/02 00:43:59;;;;;;;7.67;3.97;;;;;;;13.60;100.00;101769.25;2066305;28;20433;-61
2023/05/02 00:45:00;;;;;;;8.37;3.90;;;;;;;13.60;100.00;101774.03;2066368;28;20179;-61
2023/05/02 00:46:01;;;;;;;7.73;4.03;;;;;;;13.52;100.00;101772.59;2066288;28;20195;-62
2023/05/02 00:47:02;;;;;;;7.33;4.27;;;;;;;13.48;100.00;101764.28;2066314;28;20178;-61
2023/05/02 00:48:02;;;;;;;6.20;3.70;;;;;;;13.46;100.00;101775.06;2066391;28;20186;-62
2023/05/02 00:49:03;;;;;;;8.43;4.23;;;;;;;13.43;100.00;101770.34;2066202;28;20191;-61
2023/05/02 00:50:04;;;;;;;7.43;4.33;;;;;;;13.44;100.00;101771.16;2066193;28;20220;-62
2023/05/02 00:51:05;;;;;;;7.37;4.13;;;;;;;13.43;100.00;101784.25;2066306;28;20276;-62
2023/05/02 00:52:06;;;;;;;4.93;3.73;;;;;;;13.42;100.00;101777.13;2066057;28;20475;-62
2023/05/02 00:53:08;;;;;;;5.83;4.07;;;;;;;13.44;100.00;101777.50;2066170;28;20192;-62
2023/05/02 00:54:09;;;;;;;11.67;4.20;;;;;;;13.44;100.00;101773.94;2066268;28;20454;-62
2023/05/02 00:55:10;;;;;;;8.57;4.30;;;;;;;13.44;100.00;101774.72;2066341;28;20442;-61
2023/05/02 00:56:10;;;;;;;11.57;4.30;;;;;;;13.43;100.00;101775.16;2066219;28;20507;-61
2023/05/02 00:57:11;;;;;;;10.07;4.57;;;;;;;13.44;100.00;101777.50;2066205;28;20569;-62
2023/05/02 00:58:13;;;;;;;13.60;5.17;;;;;;;13.46;100.00;101774.28;2066208;28;20610;-62
2023/05/02 00:59:15;;;;;;;12.73;4.20;;;;;;;13.45;100.00;101779.06;2066204;28;20193;-62
2023/05/02 01:00:15;;;;;;;11.63;4.57;;;;;;;13.44;100.00;101776.72;2073705;28;20976;-62
2023/05/02 01:01:21;;;;;;;10.67;4.77;;;;;;;13.43;100.00;101769.56;2073591;28;20958;-62
2023/05/02 01:02:32;;;;;;;8.83;4.50;;;;;;;13.40;100.00;101771.22;2066224;28;20553;-62
2023/05/02 01:03:45;;;;;;;7.07;3.90;;;;;;;13.39;100.00;101772.44;2066237;28;20403;-62
2023/05/02 01:05:03;;;;;;;9.80;3.90;;;;;;;13.36;100.00;101776.03;2065410;28;20429;-61
2023/05/02 01:06:28;;;;;;;7.60;3.67;;;;;;;13.33;100.00;101773.34;2065695;28;20425;-62
2023/05/02 01:07:55;;;;;;;9.17;4.13;;;;;;;13.30;100.00;101768.59;2066154;28;20534;-62
2023/05/02 01:09:02;;;;;;;7.10;3.93;;;;;;;13.28;100.00;101759.88;2066116;28;20957;-62
2023/05/02 01:10:08;;;;;;;13.13;4.57;;;;;;;13.26;100.00;101763.09;2066151;28;20432;-63
2023/05/02 01:11:23;;;;;;;8.90;4.30;;;;;;;13.24;100.00;101761.94;2066156;28;20412;-61
2023/05/02 01:12:37;;;;;;;12.13;4.07;;;;;;;12.97;100.00;101736.91;2073524;28;20431;-62
2023/05/02 01:13:39;;;;;;;7.67;4.00;;;;;;;13.13;100.00;101776.03;2072078;28;20486;-62
2023/05/02 01:14:47;;;;;;;8.03;4.00;;;;;;;12.25;100.00;101623.59;2066117;28;20421;-62
2023/05/02 01:15:50;;;;;;;10.40;4.00;;;;;;;13.17;100.00;101767.63;2073828;28;20954;-62
2023/05/02 01:16:52;;;;;;;8.50;4.53;;;;;;;12.83;100.00;101722.44;2069279;28;20437;-62
2023/05/02 01:17:55;;;;;;;10.63;4.10;;;;;;;13.17;100.00;101773.97;2066071;28;20950;-61
2023/05/02 01:18:58;;;;;;;6.90;4.47;;;;;;;12.58;100.00;101689.44;2066056;28;20433;-62
2023/05/02 01:20:04;;;;;;;7.57;4.07;;;;;;;12.64;100.00;101707.22;2070247;28;20432;-61
2023/05/02 01:21:07;;;;;;;7.77;4.10;;;;;;;12.99;100.00;101769.91;2073971;28;20449;-63
2023/05/02 01:22:10;;;;;;;9.90;4.37;;;;;;;12.90;100.00;101775.97;2073981;28;20498;-62
2023/05/02 01:23:37;;;;;;;5.57;3.87;;;;;;;12.87;100.00;101778.81;2074099;28;20555;-62
2023/05/02 01:24:59;;;;;;;8.73;4.00;;;;;;;12.90;100.00;101778.75;2074158;28;20781;-62
2023/05/02 01:26:24;;;;;;;4.87;3.67;;;;;;;12.88;100.00;101778.41;2074061;28;20408;-62
2023/05/02 01:27:40;;;;;;;5.77;3.73;;;;;;;12.90;100.00;101777.94;2074114;28;20463;-61
2023/05/02 01:29:06;;;;;;;8.30;3.80;;;;;;;12.86;100.00;101774.47;2074137;28;20405;-62
2023/05/02 01:30:07;;;;;;;4.93;3.80;;;;;;;12.89;100.00;101779.97;2074107;28;20455;-63
2023/05/02 01:31:10;;;;;;;7.77;4.20;;;;;;;12.89;100.00;101779.16;2074099;28;20432;-62
2023/05/02 01:32:13;;;;;;;8.40;3.90;;;;;;;12.37;100.00;101688.97;2074001;28;20424;-62
2023/05/02 01:33:17;;;;;;;5.23;3.73;;;;;;;12.27;100.00;101684.34;2074075;28;20451;-62
2023/05/02 01:34:19;;;;;;;4.80;3.90;;;;;;;12.89;100.00;101779.97;2074079;28;20862;-61
2023/05/02 01:35:22;;;;;;;6.27;4.13;;;;;;;12.90;100.00;101775.97;2074013;28;20459;-62
2023/05/02 01:36:25;;;;;;;6.30;3.87;;;;;;;12.91;100.00;101777.53;2074055;28;20557;-63
2023/05/02 01:37:28;;;;;;;6.67;3.80;;;;;;;12.94;100.00;101779.50;2074079;28;20421;-62
2023/05/02 01:38:29;;;;;;;7.47;4.10;;;;;;;12.95;100.00;101780.25;2074013;28;20500;-62
2023/05/02 01:39:31;;;;;;;8.63;3.40;;;;;;;12.95;100.00;101785.81;2073785;28;20540;-63
2023/05/02 01:40:33;;;;;;;7.40;3.83;;;;;;;12.95;100.00;101788.59;2073889;28;20418;-62
2023/05/02 01:41:36;;;;;;;6.67;3.77;;;;;;;12.73;100.00;101745.63;2073831;28;20853;-62
2023/05/02 01:42:39;;;;;;;5.07;3.17;;;;;;;12.96;100.00;101782.66;2073610;28;20941;-62
2023/05/02 01:43:40;;;;;;;5.97;3.30;;;;;;;12.20;100.00;101668.53;2073950;28;20453;-62
2023/05/02 01:44:44;;;;;;;7.70;3.50;;;;;;;12.96;100.00;101788.22;2073938;28;20782;-61
2023/05/02 01:45:47;;;;;;;6.93;4.00;;;;;;;12.68;100.00;101744.13;2074091;28;20507;-62
2023/05/02 01:46:50;;;;;;;5.70;3.93;;;;;;;12.87;100.00;101781.59;2073890;28;20465;-61
2023/05/02 01:47:52;;;;;;;8.00;4.10;;;;;;;12.51;100.00;101744.38;2074165;28;20511;-62
2023/05/02 01:48:56;;;;;;;10.00;4.10;;;;;;;12.66;100.00;101763.19;2073976;28;20422;-62
2023/05/02 01:49:58;;;;;;;9.00;4.70;;;;;;;12.58;100.00;101764.53;2073731;28;20470;-62
2023/05/02 01:51:01;;;;;;;7.63;4.00;;;;;;;12.21;100.00;101713.81;2073920;28;20430;-62
2023/05/02 01:52:06;;;;;;;6.03;4.27;;;;;;;12.56;100.00;101778.03;2073164;28;20421;-62
2023/05/02 01:53:10;;;;;;;6.70;4.37;;;;;;;12.48;100.00;101782.13;2073101;28;20413;-62
2023/05/02 01:54:12;;;;;;;5.47;4.00;;;;;;;11.40;100.00;101625.91;2073771;28;20511;-61
2023/05/02 01:55:16;;;;;;;5.80;4.43;;;;;;;12.33;100.00;101783.53;2073837;28;20436;-62
2023/05/02 01:56:18;;;;;;;5.50;4.30;;;;;;;12.28;100.00;101785.97;2073753;28;20444;-62
2023/05/02 01:57:18;;;;;;;5.60;4.07;;;;;;;12.22;100.00;101774.53;2074016;28;20437;-62
2023/05/02 01:58:20;;;;;;;6.27;4.30;;;;;;;12.14;100.00;101769.47;2073845;28;20945;-62
2023/05/02 01:59:22;;;;;;;5.77;3.70;;;;;;;12.09;100.00;101773.50;2072042;28;20665;-61
2023/05/02 02:00:24;;;;;;;5.37;4.20;;;;;;;11.14;100.00;101634.91;2065471;28;20769;-62
2023/05/02 02:01:27;;;;;;;6.77;4.50;;;;;;;11.91;100.00;101774.91;2065699;28;20414;-62
2023/05/02 02:02:29;;;;;;;6.40;4.40;;;;;;;11.88;100.00;101779.28;2065774;28;20513;-62
2023/05/02 02:03:30;;;;;;;8.33;4.50;;;;;;;11.85;100.00;101771.81;2065707;28;20432;-61
2023/05/02 02:04:33;;;;;;;5.87;4.30;;;;;;;11.10;100.00;101672.19;2065677;28;20425;-62
2023/05/02 02:05:36;;;;;;;5.77;4.20;;;;;;;11.29;100.00;101685.50;2069762;28;20922;-62
2023/05/02 02:06:38;;;;;;;5.27;4.10;;;;;;;11.09;100.00;101668.66;2073676;28;20418;-62
2023/05/02 02:07:39;;;;;;;6.27;4.43;;;;;;;11.79;100.00;101778.97;2073775;28;20471;-62
2023/05/02 02:08:39;;;;;;;6.30;4.10;;;;;;;11.79;100.00;101783.78;2073740;28;20432;-62
2023/05/02 02:09:40;;;;;;;6.70;4.40;;;;;;;11.79;100.00;101775.44;2073470;28;20209;-62
2023/05/02 02:10:45;;;;;;;6.43;4.50;;;;;;;11.80;100.00;101779.78;2073675;28;20205;-61
2023/05/02 02:11:51;;;;;;;6.53;4.10;;;;;;;11.83;100.00;101784.53;2073695;28;20427;-62
2023/05/02 02:12:56;;;;;;;6.47;4.10;;;;;;;11.83;100.00;101804.75;2073772;28;20412;-61
2023/05/02 02:14:04;;;;;;;6.33;4.40;;;;;;;11.87;100.00;101790.81;2073755;28;20463;-62
2023/05/02 02:15:04;;;;;;;5.13;3.80;;;;;;;11.88;100.00;101793.19;2070336;28;20425;-62
2023/05/02 02:16:09;;;;;;;5.87;4.67;;;;;;;11.70;100.00;101761.25;2066116;28;20885;-62
2023/05/02 02:17:25;;;;;;;14.50;5.10;;;;;;;10.50;100.00;101574.91;2073092;28;20189;-62
2023/05/02 02:18:28;;;;;;;18.27;6.03;;;;;;;11.90;100.00;101798.31;2073677;28;20470;-62
2023/05/02 02:19:30;;;;;;;19.93;6.00;;;;;;;11.77;100.00;101780.59;2072918;28;20429;-62
2023/05/02 02:20:31;;;;;;;16.30;5.40;;;;;;;11.92;100.00;101793.94;2072965;28;20423;-62
2023/05/02 02:21:34;;;;;;;16.53;5.20;;;;;;;11.93;100.00;101800.28;2073563;28;20430;-62
2023/05/02 02:22:38;;;;;;;12.43;5.13;;;;;;;11.93;100.00;101797.50;2066364;28;20193;-62
2023/05/02 02:23:42;;;;;;;16.53;5.60;;;;;;;11.93;100.00;101792.72;2065540;28;20414;-62
2023/05/02 02:24:44;;;;;;;12.03;5.53;;;;;;;11.27;100.00;101694.22;2065560;28;20509;-61
2023/05/02 02:25:45;;;;;;;17.73;4.73;;;;;;;11.92;100.00;101807.03;2065548;28;20531;-62
2023/05/02 02:26:46;;;;;;;9.97;4.60;;;;;;;11.88;100.00;101800.75;2067443;28;20431;-62
2023/05/02 02:27:46;;;;;;;9.73;4.47;;;;;;;11.90;100.00;101792.78;2073667;28;20465;-62
2023/05/02 02:28:47;;;;;;;9.37;4.60;;;;;;;11.89;100.00;101794.75;2073639;28;20618;-62
2023/05/02 02:29:48;;;;;;;10.10;4.30;;;;;;;11.87;100.00;101788.03;2073438;28;20201;-62
2023/05/02 02:30:49;;;;;;;11.17;5.27;;;;;;;10.78;100.00;101628.13;2073542;28;20184;-62
2023/05/02 02:31:49;;;;;;;10.10;5.03;;;;;;;11.85;100.00;101787.66;2068616;28;20193;-62
2023/05/02 02:32:49;;;;;;;10.37;4.50;;;;;;;11.48;100.00;101734.88;2065511;28;20270;-62
2023/05/02 02:33:50;;;;;;;8.30;4.60;;;;;;;11.88;100.00;101793.19;2065415;28;20269;-62
2023/05/02 02:34:51;;;;;;;7.10;4.53;;;;;;;11.59;100.00;101755.00;2065475;28;20186;-63
2023/05/02 02:36:02;;;;;;;11.70;5.07;;;;;;;11.81;100.00;101787.72;2065478;28;20540;-62
2023/05/02 02:37:10;;;;;;;16.30;5.63;;;;;;;11.90;100.00;101801.09;2065483;28;20237;-62
2023/05/02 02:38:28;;;;;;;12.43;5.67;;;;;;;11.92;100.00;101805.03;2065339;28;20444;-62
2023/05/02 02:39:47;;;;;;;12.30;4.40;;;;;;;11.90;100.00;101803.88;2065427;28;20493;-63
2023/05/02 02:41:24;;;;;;;14.30;4.60;;;;;;;11.79;100.00;101787.31;2065405;28;20504;-62
2023/05/02 02:42:38;;;;;;;8.77;4.23;;;;;;;11.77;100.00;101792.50;2065145;28;20448;-62
2023/05/02 02:43:58;;;;;;;9.90;4.30;;;;;;;11.84;100.00;101795.19;2070444;28;20494;-62
2023/05/02 02:45:37;;;;;;;7.83;4.30;;;;;;;11.85;100.00;101807.91;2073455;28;20417;-61
2023/05/02 02:47:08;;;;;;;7.43;4.27;;;;;;;11.74;100.00;101800.88;2048436;29;20431;-62
2023/05/02 02:48:18;;;;;;;7.43;4.00;;;;;;;11.68;100.00;101800.53;2065367;28;20403;-62
2023/05/02 02:49:46;;;;;;;8.90;4.50;;;;;;;11.51;100.00;101781.22;2065405;28;20423;-62
2023/05/02 02:51:08;;;;;;;7.80;4.40;;;;;;;11.65;100.00;101801.38;2065422;28;20410;-62
2023/05/02 02:52:30;;;;;;;8.60;3.80;;;;;;;11.58;100.00;101804.16;2065141;28;20405;-62
2023/05/02 02:54:10;;;;;;;9.80;4.60;;;;;;;11.03;100.00;101733.28;2065333;28;20410;-62
2023/05/02 02:55:36;;;;;;;8.53;4.70;;;;;;;11.49;100.00;101805.84;2070720;28;20809;-62
2023/05/02 02:56:44;;;;;;;7.87;5.00;;;;;;;10.99;100.00;101729.75;2073375;28;20412;-62
2023/05/02 02:58:09;;;;;;;7.10;4.50;;;;;;;11.26;100.00;101780.66;2073434;28;20405;-61
2023/05/02 02:59:25;;;;;;;8.13;4.57;;;;;;;11.38;100.00;101805.16;2072513;28;20976;-62
2023/05/02 03:00:27;;;;;;;8.30;4.27;;;;;;;11.29;100.00;101805.63;2073372;28;20463;-62
2023/05/02 03:01:31;;;;;;;7.03;4.10;;;;;;;11.32;100.00;101807.56;2073317;28;20417;-62
2023/05/02 03:02:32;;;;;;;7.63;4.10;;;;;;;11.23;100.00;101809.22;2073293;28;20806;-62
2023/05/02 03:03:34;;;;;;;5.80;4.30;;;;;;;11.27;100.00;101812.78;2073330;28;20864;-62
2023/05/02 03:04:39;;;;;;;7.57;4.20;;;;;;;11.24;100.00;101806.06;2073314;28;20412;-61
2023/05/02 03:05:43;;;;;;;6.27;4.60;;;;;;;11.21;100.00;101812.41;2073357;28;20432;-62
2023/05/02 03:06:43;;;;;;;8.20;4.37;;;;;;;11.17;100.00;101813.66;2073297;28;20416;-63
2023/05/02 03:07:44;;;;;;;9.37;4.20;;;;;;;11.19;100.00;101812.03;2068292;28;20520;-62
2023/05/02 03:08:44;;;;;;;7.73;4.40;;;;;;;11.19;100.00;101820.38;2068939;28;20182;-61
2023/05/02 03:09:46;;;;;;;7.53;4.33;;;;;;;11.18;100.00;101816.00;2073247;28;20675;-62
2023/05/02 03:10:47;;;;;;;8.47;4.90;;;;;;;11.18;100.00;101824.31;2073064;28;20181;-62
2023/05/02 03:11:47;;;;;;;6.63;4.40;;;;;;;10.72;100.00;101746.19;2073239;28;20910;-62
2023/05/02 03:12:48;;;;;;;6.23;4.80;;;;;;;11.16;100.00;101823.13;2073181;28;20614;-62
2023/05/02 03:13:48;;;;;;;8.80;4.23;;;;;;;11.07;100.00;101814.50;2073318;28;20666;-61
2023/05/02 03:14:49;;;;;;;8.53;4.77;;;;;;;11.09;100.00;101828.75;2073271;28;20345;-62
2023/05/02 03:15:52;;;;;;;8.93;4.53;;;;;;;11.05;100.00;101822.44;2070193;28;20705;-62
2023/05/02 03:16:54;;;;;;;11.27;4.80;;;;;;;11.01;100.00;101836.31;2065066;28;20190;-62
2023/05/02 03:17:55;;;;;;;8.33;4.50;;;;;;;10.85;100.00;101811.06;2065178;28;20424;-62
2023/05/02 03:18:55;;;;;;;9.10;4.37;;;;;;;10.73;100.00;101813.53;2065234;28;20429;-62
2023/05/02 03:19:56;;;;;;;5.53;4.20;;;;;;;10.65;100.00;101803.69;2065096;28;20266;-61
2023/05/02 03:20:56;;;;;;;8.63;4.40;;;;;;;10.87;100.00;101844.72;2065084;28;20217;-62
2023/05/02 03:21:57;;;;;;;9.67;4.10;;;;;;;10.83;100.00;101846.75;2065098;28;20178;-62
2023/05/02 03:22:57;;;;;;;9.00;4.03;;;;;;;10.80;100.00;101844.78;2067964;28;20193;-62
2023/05/02 03:23:59;;;;;;;9.77;5.00;;;;;;;10.77;100.00;101842.03;2073285;28;20633;-62
2023/05/02 03:24:59;;;;;;;14.47;5.20;;;;;;;10.74;100.00;101845.59;2073312;28;20184;-62
2023/05/02 03:26:01;;;;;;;11.63;5.27;;;;;;;10.67;100.00;101840.88;2073154;28;20428;-62
2023/05/02 03:27:02;;;;;;;10.23;5.17;;;;;;;10.65;100.00;101846.03;2073123;28;20216;-62
2023/05/02 03:28:02;;;;;;;9.60;5.17;;;;;;;10.61;100.00;101842.50;2073343;28;20476;-63
2023/05/02 03:29:03;;;;;;;7.30;4.70;;;;;;;10.56;100.00;101844.91;2073209;28;20191;-62
2023/05/02 03:30:04;;;;;;;10.63;4.93;;;;;;;10.34;100.00;101824.00;2073075;28;20198;-62
2023/05/02 03:31:04;;;;;;;7.23;4.47;;;;;;;10.45;100.00;101849.72;2073391;28;20189;-62
2023/05/02 03:32:05;;;;;;;7.90;4.63;;;;;;;10.40;100.00;101841.81;2072963;28;20430;-62
2023/05/02 03:33:07;;;;;;;10.10;5.07;;;;;;;10.40;100.00;101847.34;2072596;28;20176;-62
2023/05/02 03:34:08;;;;;;;7.13;4.43;;;;;;;10.26;100.00;101842.63;2072717;28;20252;-63
2023/05/02 03:35:08;;;;;;;7.40;5.13;;;;;;;10.21;100.00;101845.84;2073242;28;20428;-62
2023/05/02 03:36:09;;;;;;;12.83;5.13;;;;;;;10.25;100.00;101851.38;2073300;28;20279;-62
2023/05/02 03:37:10;;;;;;;9.90;5.40;;;;;;;10.23;100.00;101846.22;2073318;28;20188;-62
2023/05/02 03:38:10;;;;;;;10.90;5.20;;;;;;;9.71;100.00;101763.25;2073244;28;20787;-62
2023/05/02 03:39:11;;;;;;;9.27;5.07;;;;;;;10.15;100.00;101854.94;2073060;28;20232;-62
2023/05/02 03:40:11;;;;;;;10.60;5.33;;;;;;;9.70;100.00;101790.16;2073259;28;20558;-62
2023/05/02 03:41:12;;;;;;;13.13;5.30;;;;;;;10.19;100.00;101850.19;2068724;28;20723;-62
2023/05/02 03:42:12;;;;;;;9.03;5.10;;;;;;;10.21;100.00;101859.69;2065057;28;20200;-62
2023/05/02 03:43:12;;;;;;;15.33;5.80;;;;;;;10.23;100.00;101862.03;2065973;28;20225;-61
2023/05/02 03:44:13;;;;;;;17.63;5.87;;;;;;;10.26;100.00;101859.25;2073148;28;20177;-62
2023/05/02 03:45:14;;;;;;;20.73;7.20;;;;;;;10.27;100.00;101855.31;2065390;28;20187;-61
2023/05/02 03:46:14;;;;;;;19.17;7.40;;;;;;;9.70;100.00;101786.56;2065073;28;20194;-62
2023/05/02 03:47:15;;;;;;;25.33;6.70;;;;;;;10.32;100.00;101857.66;2065049;28;20189;-61
2023/05/02 03:48:15;;;;;;;17.87;6.07;;;;;;;10.35;100.00;101865.16;2065032;28;20180;-62
2023/05/02 03:49:16;;;;;;;16.93;6.00;;;;;;;10.40;100.00;101863.97;2065039;28;20182;-63
2023/05/02 03:50:17;;;;;;;13.50;6.00;;;;;;;10.25;100.00;101852.13;2065024;28;20267;-62
2023/05/02 03:51:17;;;;;;;12.67;5.17;;;;;;;10.46;100.00;101868.69;2065037;28;20241;-61
2023/05/02 03:52:18;;;;;;;9.47;5.07;;;;;;;10.47;100.00;101861.97;2064970;28;20258;-62
2023/05/02 03:53:18;;;;;;;9.80;4.63;;;;;;;10.47;100.00;101864.75;2065128;28;20186;-62
2023/05/02 03:54:18;;;;;;;8.40;5.00;;;;;;;10.41;100.00;101848.94;2065027;28;20650;-66
2023/05/02 03:55:20;;;;;;;9.03;4.60;;;;;;;10.34;100.00;101844.19;2069104;28;20204;-63
2023/05/02 03:56:20;;;;;;;10.10;4.72;;;;;;;10.49;100.00;101865.13;2068331;28;20187;-69
2023/05/02 03:57:21;;;;;;;6.83;4.60;;;;;;;10.51;100.00;101859.94;2070095;28;20195;-69
2023/05/02 03:58:22;;;;;;;7.30;4.27;;;;;;;10.51;100.00;101867.50;2063893;28;20231;-68
2023/05/02 03:59:22;;;;;;;8.97;4.83;;;;;;;10.53;100.00;101867.88;2071503;28;20552;-68
2023/05/02 04:00:23;;;;;;;8.50;5.10;;;;;;;9.67;100.00;101727.28;2072235;28;20565;-66
2023/05/02 04:01:23;;;;;;;8.93;4.87;;;;;;;10.54;100.00;101873.03;2069999;28;20215;-67
2023/05/02 04:02:24;;;;;;;7.73;5.07;;;;;;;10.17;100.00;101805.47;2074081;28;20204;-67
2023/05/02 04:03:24;;;;;;;8.83;5.10;;;;;;;10.59;100.00;101874.56;2070349;28;20662;-66
2023/05/02 04:04:25;;;;;;;11.20;5.43;;;;;;;10.60;100.00;101867.88;2071588;28;20594;-67
2023/05/02 04:05:25;;;;;;;12.60;5.00;;;;;;;10.63;100.00;101867.84;2077661;28;20212;-68
2023/05/02 04:06:25;;;;;;;11.97;4.87;;;;;;;10.66;100.00;101874.56;2072403;28;20199;-59
2023/05/02 04:07:26;;;;;;;8.87;4.67;;;;;;;10.70;100.00;101873.34;2072458;28;20326;-62
2023/05/02 04:08:26;;;;;;;8.60;5.27;;;;;;;10.74;100.00;101878.88;2081259;28;20182;-67
2023/05/02 04:09:26;;;;;;;7.80;4.10;;;;;;;10.75;100.00;101872.94;2081451;28;20571;-68
2023/05/02 04:10:27;;;;;;;10.07;5.00;;;;;;;10.73;100.00;101871.75;2081552;28;20626;-67
2023/05/02 04:11:27;;;;;;;14.03;4.93;;;;;;;10.26;100.00;101789.22;2081563;28;20224;-67
2023/05/02 04:12:28;;;;;;;10.33;4.90;;;;;;;10.47;100.00;101848.13;2082372;28;20190;-67
2023/05/02 04:13:28;;;;;;;10.70;5.20;;;;;;;10.62;100.00;101834.97;2082591;28;20641;-65
2023/05/02 04:14:29;;;;;;;11.70;4.60;;;;;;;10.84;100.00;101869.72;2083154;28;20713;-68
2023/05/02 04:15:30;;;;;;;10.17;5.20;;;;;;;10.81;100.00;101857.44;2074154;28;20535;-67
2023/05/02 04:16:31;;;;;;;14.07;5.10;;;;;;;10.96;100.00;101880.38;2072958;28;20475;-69
2023/05/02 04:17:31;;;;;;;12.57;5.00;;;;;;;10.70;100.00;101853.94;2073300;28;21014;-65
2023/05/02 04:18:32;;;;;;;22.53;5.70;;;;;;;10.27;100.00;101758.34;2077991;28;20854;-67
2023/05/02 04:19:33;;;;;;;15.80;5.67;;;;;;;11.09;100.00;101887.81;2073421;28;20298;-65
2023/05/02 04:20:33;;;;;;;15.60;6.47;;;;;;;11.13;100.00;101898.88;2072201;28;20670;-67
2023/05/02 04:21:36;;;;;;;13.20;6.53;;;;;;;11.14;100.00;101887.38;2075752;28;20464;-62
2023/05/02 04:22:38;;;;;;;13.80;5.88;;;;;;;11.20;100.00;101890.50;2077610;28;20199;-64
2023/05/02 04:23:39;;;;;;;14.10;5.33;;;;;;;11.23;100.00;101884.16;2072546;28;20673;-64
2023/05/02 04:24:39;;;;;;;12.20;5.57;;;;;;;11.26;100.00;101886.09;2074620;28;20535;-63
2023/05/02 04:25:40;;;;;;;17.23;5.53;;;;;;;11.30;100.00;101882.13;2074679;28;20279;-63
2023/05/02 04:26:40;;;;;;;16.83;6.20;;;;;;;10.15;100.00;101697.84;2075010;28;20207;-63
2023/05/02 04:27:41;;;;;;;13.13;5.80;;;;;;;11.25;100.00;101865.91;2072940;28;20635;-63
2023/05/02 04:28:41;;;;;;;12.00;6.00;;;;;;;11.45;100.00;101885.56;2072314;28;20257;-62
2023/05/02 04:29:42;;;;;;;13.43;5.83;;;;;;;11.49;100.00;101892.69;2077151;28;20208;-60
2023/05/02 04:30:42;;;;;;;12.37;5.23;;;;;;;11.52;100.00;101886.31;2072304;28;20226;-61
2023/05/02 04:31:43;;;;;;;8.93;5.33;;;;;;;11.53;100.00;101873.22;2074061;28;20294;-65
2023/05/02 04:32:44;;;;;;;11.97;6.00;;;;;;;11.65;100.00;101889.41;2075306;28;20219;-62
2023/05/02 04:33:44;;;;;;;12.80;5.73;;;;;;;11.68;100.00;101880.28;2073303;28;20298;-62
2023/05/02 04:34:45;;;;;;;12.10;6.40;;;;;;;11.73;100.00;101886.16;2072948;28;20259;-63
2023/05/02 04:35:45;;;;;;;16.17;6.63;;;;;;;11.78;100.00;101882.94;2072098;28;20200;-62
2023/05/02 04:36:46;;;;;;;16.60;6.60;;;;;;;11.83;100.00;101885.28;2073498;28;20192;-63
2023/05/02 04:37:46;;;;;;;12.87;6.97;;;;;;;11.88;100.00;101890.41;2077377;28;20197;-61
2023/05/02 04:38:46;;;;;;;14.73;7.23;;;;;;;11.94;100.00;101890.75;2078830;28;20680;-61
2023/05/02 04:39:47;;;;;;;18.17;8.47;;;;;;;12.03;100.00;101893.81;2072581;28;20251;-63
2023/05/02 04:40:50;;;;;;;19.27;8.40;;;;;;;12.07;100.00;101892.59;2072664;28;20291;-62
2023/05/02 04:41:51;;;;;;;10.30;7.47;;;;;;;12.11;100.00;101887.00;2083910;28;20196;-62
2023/05/02 04:42:51;;;;;;;16.13;6.53;;;;;;;11.94;100.00;101855.41;2082830;28;20439;-63
2023/05/02 04:43:51;;;;;;;10.33;5.77;;;;;;;12.20;100.00;101888.09;2072250;28;20268;-62
2023/05/02 04:44:52;;;;;;;15.13;6.77;;;;;;;11.88;100.00;101822.97;2069307;28;20227;-61
2023/05/02 04:45:52;;;;;;;7.90;5.90;;;;;;;12.26;100.00;101896.78;2071001;28;20189;-62
2023/05/02 04:46:53;;;;;;;10.30;6.33;;;;;;;11.78;100.00;101804.41;2070026;28;20234;-62
2023/05/02 04:47:53;;;;;;;11.83;6.30;;;;;;;12.36;100.00;101893.91;2072920;28;20730;-62
2023/05/02 04:48:54;;;;;;;10.73;6.00;;;;;;;12.45;100.00;101898.97;2071538;28;20289;-63
2023/05/02 04:49:54;;;;;;;13.87;5.57;;;;;;;12.50;100.00;101898.50;2069295;28;20291;-63
2023/05/02 04:50:55;;;;;;;13.23;7.50;;;;;;;12.55;100.00;101901.59;2065886;28;20227;-62